createdAt,value
2023-01-19T00:02:35.599Z,1.73
2023-01-19T00:07:38.224Z,1.73
2023-01-19T00:12:40.938Z,1.70
2023-01-19T00:17:43.559Z,1.69
2023-01-19T00:22:50.714Z,1.68
2023-01-19T00:27:53.345Z,1.70
2023-01-19T00:32:56.261Z,1.73
2023-01-19T00:37:59.515Z,1.73
2023-01-19T00:43:03.236Z,1.70
2023-01-19T00:48:06.432Z,1.68
2023-01-19T00:53:09.147Z,1.68
2023-01-19T00:58:11.769Z,1.67
2023-01-19T01:03:14.757Z,1.66
2023-01-19T01:08:17.405Z,1.63
2023-01-19T01:13:23.591Z,1.62
2023-01-19T01:18:28.225Z,1.58
2023-01-19T01:23:30.897Z,1.59
2023-01-19T01:28:33.516Z,1.59
2023-01-19T01:33:39.820Z,1.57
2023-01-19T01:38:44.036Z,1.53
2023-01-19T01:43:54.780Z,1.50
2023-01-19T01:49:00.353Z,1.50
2023-01-19T01:54:06.999Z,1.52
2023-01-19T01:59:26.140Z,1.54
2023-01-19T02:04:30.060Z,1.51
2023-01-19T02:09:39.621Z,1.49
2023-01-19T02:14:42.265Z,1.46
2023-01-19T02:19:46.431Z,1.46
2023-01-19T02:24:50.068Z,1.50
2023-01-19T02:29:53.207Z,1.52
2023-01-19T02:34:58.599Z,1.52
2023-01-19T02:40:04.163Z,1.49
2023-01-19T02:45:09.416Z,1.50
2023-01-19T02:50:17.838Z,1.52
2023-01-19T02:55:28.349Z,1.60
2023-01-19T03:00:56.059Z,1.63
2023-01-19T03:06:05.959Z,1.63
2023-01-19T03:11:12.685Z,1.63
2023-01-19T03:16:21.852Z,1.65
2023-01-19T03:21:28.681Z,1.70
2023-01-19T03:26:37.432Z,1.72
2023-01-19T03:31:45.775Z,1.71
2023-01-19T03:36:53.969Z,1.67
2023-01-19T03:42:04.928Z,1.59
2023-01-19T03:47:10.152Z,1.54
2023-01-19T03:52:12.924Z,1.46
2023-01-19T03:57:15.600Z,1.42
2023-01-19T04:02:18.247Z,1.41
2023-01-19T04:07:20.964Z,1.35
2023-01-19T04:12:23.729Z,1.28
2023-01-19T04:17:26.459Z,1.17
2023-01-19T04:22:30.374Z,1.05
2023-01-19T04:27:32.996Z,0.93
2023-01-19T04:32:37.721Z,0.82
2023-01-19T04:37:40.398Z,0.80
2023-01-19T04:42:44.938Z,0.87
2023-01-19T04:47:47.541Z,0.94
2023-01-19T04:52:50.219Z,1.00
2023-01-19T04:57:54.181Z,1.03
2023-01-19T05:02:56.880Z,1.11
2023-01-19T05:07:59.518Z,1.13
2023-01-19T05:13:02.627Z,1.07
2023-01-19T05:18:05.511Z,1.01
2023-01-19T05:23:08.144Z,1.00
2023-01-19T05:28:11.674Z,1.00
2023-01-19T05:33:16.835Z,1.01
2023-01-19T05:38:29.348Z,0.99
2023-01-19T05:43:36.636Z,1.01
2023-01-19T05:48:42.791Z,1.01
2023-01-19T05:53:45.434Z,1.01
2023-01-19T05:58:48.331Z,1.01
2023-01-19T06:03:51.003Z,1.04
2023-01-19T06:08:54.444Z,1.10
2023-01-19T06:13:57.101Z,1.11
2023-01-19T06:18:59.745Z,1.12
2023-01-19T06:24:03.553Z,1.11
2023-01-19T06:29:06.380Z,1.10
2023-01-19T06:34:10.041Z,1.04
2023-01-19T06:39:13.215Z,0.98
2023-01-19T06:44:15.895Z,0.92
2023-01-19T06:49:18.558Z,0.89
2023-01-19T06:54:21.880Z,0.87
2023-01-19T06:59:25.486Z,0.81
2023-01-19T07:04:28.092Z,0.81
2023-01-19T07:09:30.675Z,0.87
2023-01-19T07:14:33.975Z,0.96
2023-01-19T07:19:36.755Z,1.04
2023-01-19T07:24:39.362Z,1.07
2023-01-19T07:29:42.516Z,1.09
2023-01-19T07:34:45.399Z,1.14
2023-01-19T07:39:48.153Z,1.21
2023-01-19T07:44:50.727Z,1.23
2023-01-19T07:49:53.327Z,1.23
2023-01-19T07:54:55.920Z,1.26
2023-01-19T07:59:58.528Z,1.31
2023-01-19T08:05:01.224Z,1.38
2023-01-19T08:10:04.044Z,1.48
2023-01-19T08:15:07.345Z,1.56
2023-01-19T08:20:11.193Z,1.65
2023-01-19T08:25:13.813Z,1.75
2023-01-19T08:30:16.910Z,1.81
2023-01-19T08:35:19.493Z,1.78
2023-01-19T08:40:22.239Z,1.83
2023-01-19T08:45:24.906Z,1.96
2023-01-19T08:50:30.937Z,2.08
2023-01-19T08:55:36.220Z,2.18
2023-01-19T09:00:40.098Z,2.27
2023-01-19T09:05:42.837Z,2.35
2023-01-19T09:10:50.699Z,2.44
2023-01-19T09:15:53.482Z,2.55
2023-01-19T09:20:57.653Z,2.61
2023-01-19T09:26:03.024Z,2.69
2023-01-19T09:31:07.592Z,2.80
2023-01-19T09:36:10.686Z,2.95
2023-01-19T09:41:20.982Z,3.03
2023-01-19T09:46:38.876Z,3.09
2023-01-19T09:51:46.673Z,3.15
2023-01-19T09:56:52.448Z,3.20
2023-01-19T10:01:58.380Z,3.20
2023-01-19T10:07:09.640Z,3.24
2023-01-19T10:12:35.217Z,3.34
2023-01-19T10:17:47.090Z,3.43
2023-01-19T10:22:50.636Z,3.53
2023-01-19T10:27:53.391Z,3.56
2023-01-19T10:32:56.096Z,3.50
2023-01-19T10:38:02.106Z,3.45
2023-01-19T10:43:10.850Z,3.47
2023-01-19T10:48:13.842Z,3.59
2023-01-19T10:53:22.223Z,3.68
2023-01-19T10:58:29.950Z,3.76
2023-01-19T11:03:32.599Z,3.89
2023-01-19T11:08:35.203Z,4.03
2023-01-19T11:13:43.859Z,4.17
2023-01-19T11:18:52.610Z,4.09
2023-01-19T11:23:57.855Z,3.95
2023-01-19T11:29:03.235Z,3.81
2023-01-19T11:34:21.764Z,3.82
2023-01-19T11:39:28.115Z,3.93
2023-01-19T11:44:36.289Z,4.01
2023-01-19T11:49:42.832Z,4.02
2023-01-19T11:55:01.496Z,4.05
2023-01-19T12:00:24.960Z,4.12
2023-01-19T12:05:36.056Z,4.12
2023-01-19T12:10:43.900Z,4.02
2023-01-19T12:15:48.414Z,3.91
2023-01-19T12:20:54.051Z,3.78
2023-01-19T12:26:02.493Z,3.72
2023-01-19T12:31:05.724Z,3.69
2023-01-19T12:36:14.182Z,3.70
2023-01-19T12:41:18.750Z,3.69
2023-01-19T12:46:24.239Z,3.66
2023-01-19T12:51:27.086Z,3.67
2023-01-19T12:56:33.971Z,3.63
2023-01-19T13:01:36.756Z,3.65
2023-01-19T13:06:45.227Z,3.57
2023-01-19T13:12:21.587Z,3.54
2023-01-19T13:17:31.912Z,3.54
2023-01-19T13:22:40.321Z,3.55
2023-01-19T13:27:43.129Z,3.50
2023-01-19T13:32:46.861Z,3.47
2023-01-19T13:37:50.688Z,3.39
2023-01-19T13:42:54.031Z,3.33
2023-01-19T13:47:59.848Z,3.27
2023-01-19T13:53:04.508Z,3.16
2023-01-19T13:58:23.240Z,3.01
2023-01-19T14:03:26.661Z,2.94
2023-01-19T14:08:31.169Z,2.91
2023-01-19T14:13:40.047Z,2.88
2023-01-19T14:18:45.179Z,2.81
2023-01-19T14:23:49.278Z,2.74
2023-01-19T14:28:51.939Z,2.70
2023-01-19T14:33:56.068Z,2.66
2023-01-19T14:39:00.986Z,2.57
2023-01-19T14:44:09.008Z,2.43
2023-01-19T14:49:21.672Z,2.32
2023-01-19T14:54:31.609Z,2.27
2023-01-19T14:59:34.296Z,2.27
2023-01-19T15:04:36.902Z,2.27
2023-01-19T15:09:39.823Z,2.27
2023-01-19T15:14:42.791Z,2.27
2023-01-19T15:19:45.414Z,2.27
2023-01-19T15:24:49.557Z,2.27
2023-01-19T15:29:52.232Z,2.25
2023-01-19T15:34:54.875Z,2.25
2023-01-19T15:39:57.705Z,2.27
2023-01-19T15:45:00.430Z,2.28
2023-01-19T15:50:03.058Z,2.31
2023-01-19T15:55:06.292Z,2.30
2023-01-19T16:00:09.820Z,2.28
2023-01-19T16:05:13.137Z,2.24
2023-01-19T16:10:16.932Z,2.23
2023-01-19T16:15:19.547Z,2.27
2023-01-19T16:20:22.184Z,2.29
2023-01-19T16:25:24.853Z,2.28
2023-01-19T16:30:27.493Z,2.28
2023-01-19T16:35:30.098Z,2.28
2023-01-19T16:40:32.726Z,2.26
2023-01-19T16:45:37.796Z,2.26
2023-01-19T16:50:40.414Z,2.26
2023-01-19T16:55:43.037Z,2.25
2023-01-19T17:00:45.790Z,2.25
2023-01-19T17:05:51.605Z,2.27
2023-01-19T17:11:27.006Z,2.19
2023-01-19T17:17:05.715Z,2.19
2023-01-19T17:22:12.858Z,2.20
2023-01-19T17:27:17.100Z,2.25
2023-01-19T17:32:19.691Z,2.29
2023-01-19T17:37:22.342Z,2.30
2023-01-19T17:42:24.990Z,2.32
2023-01-19T17:47:27.642Z,2.32
2023-01-19T17:52:30.281Z,2.32
2023-01-19T17:57:33.130Z,2.32
2023-01-19T18:02:36.025Z,2.30
2023-01-19T18:07:39.975Z,2.28
2023-01-19T18:12:42.641Z,2.31
2023-01-19T18:17:45.296Z,2.27
2023-01-19T18:22:47.989Z,2.16
2023-01-19T18:27:50.563Z,2.10
2023-01-19T18:32:53.170Z,2.06
2023-01-19T18:37:57.016Z,2.03
2023-01-19T18:42:59.609Z,2.04
2023-01-19T18:48:02.575Z,2.02
2023-01-19T18:53:05.242Z,2.03
2023-01-19T18:58:08.679Z,2.04
2023-01-19T19:03:11.341Z,2.07
2023-01-19T19:08:13.985Z,2.13
2023-01-19T19:13:17.608Z,2.15
2023-01-19T19:18:22.574Z,2.11
2023-01-19T19:23:25.315Z,2.13
2023-01-19T19:28:27.908Z,2.19
2023-01-19T19:33:30.699Z,2.22
2023-01-19T19:38:36.553Z,2.21
2023-01-19T19:43:41.897Z,2.15
2023-01-19T19:48:47.602Z,2.14
2023-01-19T19:53:51.852Z,2.13
2023-01-19T19:58:56.560Z,2.13
2023-01-19T20:04:06.626Z,2.15
2023-01-19T20:09:12.549Z,2.15
2023-01-19T20:14:16.146Z,2.09
2023-01-19T20:19:18.885Z,2.04
2023-01-19T20:24:21.575Z,1.96
2023-01-19T20:29:24.304Z,1.92
2023-01-19T20:34:32.958Z,1.91
2023-01-19T20:39:37.086Z,1.84
2023-01-19T20:44:39.970Z,1.76
2023-01-19T20:49:42.704Z,1.73
2023-01-19T20:54:45.395Z,1.74
2023-01-19T20:59:48.033Z,1.74
2023-01-19T21:04:53.116Z,1.71
2023-01-19T21:09:55.791Z,1.68
2023-01-19T21:15:00.911Z,1.66
2023-01-19T21:20:04.003Z,1.69
2023-01-19T21:25:07.561Z,1.65
2023-01-19T21:30:10.873Z,1.64
2023-01-19T21:35:13.993Z,1.64
2023-01-19T21:40:19.202Z,1.62
2023-01-19T21:45:22.266Z,1.58
2023-01-19T21:50:24.996Z,1.58
2023-01-19T21:55:28.080Z,1.54
2023-01-19T22:00:30.815Z,1.53
2023-01-19T22:05:36.740Z,1.52
2023-01-19T22:10:39.586Z,1.58
2023-01-19T22:15:42.191Z,1.65
2023-01-19T22:20:44.804Z,1.72
2023-01-19T22:25:47.548Z,1.75
2023-01-19T22:30:50.231Z,1.76
2023-01-19T22:35:52.850Z,1.82
2023-01-19T22:40:55.435Z,1.86
2023-01-19T22:45:58.957Z,1.81
2023-01-19T22:51:04.065Z,1.78
2023-01-19T22:56:13.028Z,1.73
2023-01-19T23:01:37.734Z,1.70
2023-01-19T23:06:40.490Z,1.76
2023-01-19T23:11:48.328Z,1.79
2023-01-19T23:16:51.283Z,1.75
2023-01-19T23:21:53.929Z,1.75
2023-01-19T23:26:56.542Z,1.77
2023-01-19T23:31:59.331Z,1.77
2023-01-19T23:37:01.955Z,1.80
2023-01-19T23:42:05.125Z,1.83
2023-01-19T23:47:07.705Z,1.82
2023-01-19T23:52:10.342Z,1.77
2023-01-19T23:57:12.959Z,1.72
